sensor_id;sensor_type;location;lat;lon;timestamp;temperature;humidity
19496;DHT22;9888;48.606;9.630;2022-10-26T00:01:20;11.40;99.90
19496;DHT22;9888;48.606;9.630;2022-10-26T00:03:47;11.30;99.90
19496;DHT22;9888;48.606;9.630;2022-10-26T00:06:19;11.30;99.90
19496;DHT22;9888;48.606;9.630;2022-10-26T00:08:47;11.30;99.90
19496;DHT22;9888;48.606;9.630;2022-10-26T00:11:15;11.20;99.90
19496;DHT22;9888;48.606;9.630;2022-10-26T00:13:44;11.20;99.90
19496;DHT22;9888;48.606;9.630;2022-10-26T00:16:14;11.20;99.90
19496;DHT22;9888;48.606;9.630;2022-10-26T00:18:45;11.20;99.90
19496;DHT22;9888;48.606;9.630;2022-10-26T00:21:13;11.20;99.90
19496;DHT22;9888;48.606;9.630;2022-10-26T00:23:39;11.20;99.90
19496;DHT22;9888;48.606;9.630;2022-10-26T00:26:08;11.20;99.90
19496;DHT22;9888;48.606;9.630;2022-10-26T00:28:36;11.20;99.90
19496;DHT22;9888;48.606;9.630;2022-10-26T00:31:08;11.20;99.90
19496;DHT22;9888;48.606;9.630;2022-10-26T00:33:38;11.20;99.90
19496;DHT22;9888;48.606;9.630;2022-10-26T00:36:06;11.10;99.90
19496;DHT22;9888;48.606;9.630;2022-10-26T00:38:35;11.10;99.90
19496;DHT22;9888;48.606;9.630;2022-10-26T00:41:02;11.10;99.90
19496;DHT22;9888;48.606;9.630;2022-10-26T00:45:58;11.10;99.90
19496;DHT22;9888;48.606;9.630;2022-10-26T00:48:35;11.10;99.90
19496;DHT22;9888;48.606;9.630;2022-10-26T00:51:22;11.10;99.90
19496;DHT22;9888;48.606;9.630;2022-10-26T00:53:50;11.10;99.90
19496;DHT22;9888;48.606;9.630;2022-10-26T00:56:21;11.10;99.90
19496;DHT22;9888;48.606;9.630;2022-10-26T00:58:48;11.10;99.90
19496;DHT22;9888;48.606;9.630;2022-10-26T01:01:15;11.20;99.90
19496;DHT22;9888;48.606;9.630;2022-10-26T01:03:42;11.20;99.90
19496;DHT22;9888;48.606;9.630;2022-10-26T01:06:11;11.20;99.90
19496;DHT22;9888;48.606;9.630;2022-10-26T01:08:40;11.20;99.90
19496;DHT22;9888;48.606;9.630;2022-10-26T01:11:08;11.20;99.90
19496;DHT22;9888;48.606;9.630;2022-10-26T01:13:37;11.30;99.90
19496;DHT22;9888;48.606;9.630;2022-10-26T01:21:52;11.20;99.90
19496;DHT22;9888;48.606;9.630;2022-10-26T01:24:46;11.20;99.90
19496;DHT22;9888;48.606;9.630;2022-10-26T01:27:46;11.30;99.90
19496;DHT22;9888;48.606;9.630;2022-10-26T01:30:21;11.30;99.90
19496;DHT22;9888;48.606;9.630;2022-10-26T01:36:13;11.40;99.90
19496;DHT22;9888;48.606;9.630;2022-10-26T01:39:00;11.30;99.90
19496;DHT22;9888;48.606;9.630;2022-10-26T01:41:34;11.30;99.90
19496;DHT22;9888;48.606;9.630;2022-10-26T01:44:12;11.40;99.90
19496;DHT22;9888;48.606;9.630;2022-10-26T01:46:43;11.30;99.90
19496;DHT22;9888;48.606;9.630;2022-10-26T01:49:25;11.30;99.90
19496;DHT22;9888;48.606;9.630;2022-10-26T01:51:54;11.40;99.90
19496;DHT22;9888;48.606;9.630;2022-10-26T01:54:22;11.40;99.90
19496;DHT22;9888;48.606;9.630;2022-10-26T01:56:54;11.30;99.90
19496;DHT22;9888;48.606;9.630;2022-10-26T01:59:35;11.30;99.90
19496;DHT22;9888;48.606;9.630;2022-10-26T02:08:02;11.30;99.90
19496;DHT22;9888;48.606;9.630;2022-10-26T02:16:09;11.20;99.90
19496;DHT22;9888;48.606;9.630;2022-10-26T02:18:56;11.20;99.90
19496;DHT22;9888;48.606;9.630;2022-10-26T02:21:37;11.20;99.90
19496;DHT22;9888;48.606;9.630;2022-10-26T02:24:07;11.10;99.90
19496;DHT22;9888;48.606;9.630;2022-10-26T02:26:36;11.20;99.90
19496;DHT22;9888;48.606;9.630;2022-10-26T02:29:08;11.20;99.90
19496;DHT22;9888;48.606;9.630;2022-10-26T02:31:56;11.20;99.90
19496;DHT22;9888;48.606;9.630;2022-10-26T02:34:27;11.20;99.90
19496;DHT22;9888;48.606;9.630;2022-10-26T02:36:57;11.10;99.90
19496;DHT22;9888;48.606;9.630;2022-10-26T02:39:27;11.10;99.90
19496;DHT22;9888;48.606;9.630;2022-10-26T02:42:02;11.10;99.90
19496;DHT22;9888;48.606;9.630;2022-10-26T02:44:43;11.10;99.90
19496;DHT22;9888;48.606;9.630;2022-10-26T02:47:13;11.10;99.90
19496;DHT22;9888;48.606;9.630;2022-10-26T02:49:41;11.10;99.90
19496;DHT22;9888;48.606;9.630;2022-10-26T02:55:10;11.10;99.90
19496;DHT22;9888;48.606;9.630;2022-10-26T02:57:40;11.10;99.90
19496;DHT22;9888;48.606;9.630;2022-10-26T03:00:12;11.10;99.90
19496;DHT22;9888;48.606;9.630;2022-10-26T03:02:50;11.10;99.90
19496;DHT22;9888;48.606;9.630;2022-10-26T03:05:28;11.10;99.90
19496;DHT22;9888;48.606;9.630;2022-10-26T03:08:00;11.00;99.90
19496;DHT22;9888;48.606;9.630;2022-10-26T03:10:27;11.00;99.90
19496;DHT22;9888;48.606;9.630;2022-10-26T03:12:56;10.90;99.90
19496;DHT22;9888;48.606;9.630;2022-10-26T03:15:23;10.90;99.90
19496;DHT22;9888;48.606;9.630;2022-10-26T03:17:50;10.90;99.90
19496;DHT22;9888;48.606;9.630;2022-10-26T03:20:17;10.90;99.90
19496;DHT22;9888;48.606;9.630;2022-10-26T03:22:46;10.90;99.90
19496;DHT22;9888;48.606;9.630;2022-10-26T03:25:14;11.00;99.90
19496;DHT22;9888;48.606;9.630;2022-10-26T03:27:42;11.00;99.90
19496;DHT22;9888;48.606;9.630;2022-10-26T03:30:10;11.00;99.90
19496;DHT22;9888;48.606;9.630;2022-10-26T03:32:38;11.00;99.90
19496;DHT22;9888;48.606;9.630;2022-10-26T03:35:07;11.10;99.90
19496;DHT22;9888;48.606;9.630;2022-10-26T03:37:35;11.00;99.90
19496;DHT22;9888;48.606;9.630;2022-10-26T03:40:01;11.10;99.90
19496;DHT22;9888;48.606;9.630;2022-10-26T03:42:44;11.10;99.90
19496;DHT22;9888;48.606;9.630;2022-10-26T03:45:13;11.10;99.90
19496;DHT22;9888;48.606;9.630;2022-10-26T03:47:46;11.20;99.90
19496;DHT22;9888;48.606;9.630;2022-10-26T03:50:19;11.20;99.90
19496;DHT22;9888;48.606;9.630;2022-10-26T03:52:47;11.30;99.90
19496;DHT22;9888;48.606;9.630;2022-10-26T03:55:14;11.30;99.90
19496;DHT22;9888;48.606;9.630;2022-10-26T03:57:43;11.30;99.90
19496;DHT22;9888;48.606;9.630;2022-10-26T04:00:13;11.40;99.90
19496;DHT22;9888;48.606;9.630;2022-10-26T04:02:52;11.40;99.90
19496;DHT22;9888;48.606;9.630;2022-10-26T04:05:22;11.40;99.90
19496;DHT22;9888;48.606;9.630;2022-10-26T04:07:57;11.40;99.90
19496;DHT22;9888;48.606;9.630;2022-10-26T04:10:26;11.60;99.90
19496;DHT22;9888;48.606;9.630;2022-10-26T04:12:56;11.70;99.90
19496;DHT22;9888;48.606;9.630;2022-10-26T04:15:28;11.90;99.90
19496;DHT22;9888;48.606;9.630;2022-10-26T04:17:59;12.00;99.90
19496;DHT22;9888;48.606;9.630;2022-10-26T04:20:28;12.10;99.90
19496;DHT22;9888;48.606;9.630;2022-10-26T04:23:13;12.20;99.90
19496;DHT22;9888;48.606;9.630;2022-10-26T04:25:44;12.20;99.90
19496;DHT22;9888;48.606;9.630;2022-10-26T04:28:13;12.20;99.90
19496;DHT22;9888;48.606;9.630;2022-10-26T04:30:40;12.20;99.90
19496;DHT22;9888;48.606;9.630;2022-10-26T04:33:10;12.30;99.90
19496;DHT22;9888;48.606;9.630;2022-10-26T04:35:38;12.20;99.90
19496;DHT22;9888;48.606;9.630;2022-10-26T04:38:10;12.20;99.90
19496;DHT22;9888;48.606;9.630;2022-10-26T04:40:37;12.20;99.90
19496;DHT22;9888;48.606;9.630;2022-10-26T04:43:05;12.30;99.90
19496;DHT22;9888;48.606;9.630;2022-10-26T04:45:32;12.30;99.90
19496;DHT22;9888;48.606;9.630;2022-10-26T04:48:13;12.30;99.90
19496;DHT22;9888;48.606;9.630;2022-10-26T04:50:41;12.30;99.90
19496;DHT22;9888;48.606;9.630;2022-10-26T04:53:08;12.20;99.90
19496;DHT22;9888;48.606;9.630;2022-10-26T04:55:35;12.20;99.90
19496;DHT22;9888;48.606;9.630;2022-10-26T04:58:03;12.20;99.90
19496;DHT22;9888;48.606;9.630;2022-10-26T05:00:31;12.30;99.90
19496;DHT22;9888;48.606;9.630;2022-10-26T05:03:05;12.30;99.90
19496;DHT22;9888;48.606;9.630;2022-10-26T05:05:34;12.30;99.90
19496;DHT22;9888;48.606;9.630;2022-10-26T05:08:04;12.30;99.90
19496;DHT22;9888;48.606;9.630;2022-10-26T05:10:31;12.30;99.90
19496;DHT22;9888;48.606;9.630;2022-10-26T05:13:00;12.30;99.90
19496;DHT22;9888;48.606;9.630;2022-10-26T05:15:28;12.20;99.90
19496;DHT22;9888;48.606;9.630;2022-10-26T05:18:07;12.20;99.90
19496;DHT22;9888;48.606;9.630;2022-10-26T05:20:35;12.20;99.90
19496;DHT22;9888;48.606;9.630;2022-10-26T05:23:06;12.30;99.90
19496;DHT22;9888;48.606;9.630;2022-10-26T05:26:11;12.30;99.90
19496;DHT22;9888;48.606;9.630;2022-10-26T05:28:39;12.30;99.90
19496;DHT22;9888;48.606;9.630;2022-10-26T05:31:06;12.30;99.90
19496;DHT22;9888;48.606;9.630;2022-10-26T05:33:34;12.40;99.90
19496;DHT22;9888;48.606;9.630;2022-10-26T05:36:01;12.50;99.90
19496;DHT22;9888;48.606;9.630;2022-10-26T05:38:32;12.50;99.90
19496;DHT22;9888;48.606;9.630;2022-10-26T05:41:00;12.40;99.90
19496;DHT22;9888;48.606;9.630;2022-10-26T05:43:27;12.40;99.90
19496;DHT22;9888;48.606;9.630;2022-10-26T05:45:56;12.40;99.90
19496;DHT22;9888;48.606;9.630;2022-10-26T05:48:23;12.50;99.90
19496;DHT22;9888;48.606;9.630;2022-10-26T05:50:50;12.50;99.90
19496;DHT22;9888;48.606;9.630;2022-10-26T05:53:18;12.50;99.90
19496;DHT22;9888;48.606;9.630;2022-10-26T05:55:47;12.60;99.90
19496;DHT22;9888;48.606;9.630;2022-10-26T05:58:15;12.70;99.90
19496;DHT22;9888;48.606;9.630;2022-10-26T06:03:56;13.00;99.90
19496;DHT22;9888;48.606;9.630;2022-10-26T06:06:36;13.10;99.90
19496;DHT22;9888;48.606;9.630;2022-10-26T06:09:11;13.20;99.90
19496;DHT22;9888;48.606;9.630;2022-10-26T06:11:40;13.20;99.90
19496;DHT22;9888;48.606;9.630;2022-10-26T06:14:14;13.10;99.90
19496;DHT22;9888;48.606;9.630;2022-10-26T06:16:59;13.10;99.90
19496;DHT22;9888;48.606;9.630;2022-10-26T06:25:44;13.30;99.90
19496;DHT22;9888;48.606;9.630;2022-10-26T06:28:51;13.40;99.90
19496;DHT22;9888;48.606;9.630;2022-10-26T06:31:21;13.50;99.90
19496;DHT22;9888;48.606;9.630;2022-10-26T06:33:59;13.70;99.90
19496;DHT22;9888;48.606;9.630;2022-10-26T06:36:28;13.70;99.90
19496;DHT22;9888;48.606;9.630;2022-10-26T06:39:02;13.70;99.90
19496;DHT22;9888;48.606;9.630;2022-10-26T06:41:41;13.80;99.90
19496;DHT22;9888;48.606;9.630;2022-10-26T06:44:11;13.90;99.90
19496;DHT22;9888;48.606;9.630;2022-10-26T06:47:06;13.90;99.90
19496;DHT22;9888;48.606;9.630;2022-10-26T06:50:16;14.00;99.90
19496;DHT22;9888;48.606;9.630;2022-10-26T06:55:57;14.20;99.90
19496;DHT22;9888;48.606;9.630;2022-10-26T06:58:32;14.30;99.90
19496;DHT22;9888;48.606;9.630;2022-10-26T07:01:00;14.40;99.90
19496;DHT22;9888;48.606;9.630;2022-10-26T07:03:29;14.60;99.90
19496;DHT22;9888;48.606;9.630;2022-10-26T07:05:57;14.70;99.90
19496;DHT22;9888;48.606;9.630;2022-10-26T07:08:24;14.70;99.90
19496;DHT22;9888;48.606;9.630;2022-10-26T07:10:53;14.70;99.90
19496;DHT22;9888;48.606;9.630;2022-10-26T07:13:22;14.80;99.90
19496;DHT22;9888;48.606;9.630;2022-10-26T07:15:54;14.80;99.90
19496;DHT22;9888;48.606;9.630;2022-10-26T07:18:21;14.80;99.90
19496;DHT22;9888;48.606;9.630;2022-10-26T07:20:50;14.90;99.90
19496;DHT22;9888;48.606;9.630;2022-10-26T07:23:17;14.80;99.90
19496;DHT22;9888;48.606;9.630;2022-10-26T07:25:44;14.80;99.90
19496;DHT22;9888;48.606;9.630;2022-10-26T07:28:12;14.80;99.90
19496;DHT22;9888;48.606;9.630;2022-10-26T07:30:40;14.80;99.90
19496;DHT22;9888;48.606;9.630;2022-10-26T07:33:09;14.80;99.90
19496;DHT22;9888;48.606;9.630;2022-10-26T07:35:36;14.80;99.90
19496;DHT22;9888;48.606;9.630;2022-10-26T07:38:06;14.90;99.90
19496;DHT22;9888;48.606;9.630;2022-10-26T07:40:34;14.90;99.90
19496;DHT22;9888;48.606;9.630;2022-10-26T07:43:04;14.90;99.90
19496;DHT22;9888;48.606;9.630;2022-10-26T07:45:38;14.90;99.90
19496;DHT22;9888;48.606;9.630;2022-10-26T07:51:22;15.00;99.90
19496;DHT22;9888;48.606;9.630;2022-10-26T07:53:49;15.10;99.90
19496;DHT22;9888;48.606;9.630;2022-10-26T07:56:18;15.20;99.90
19496;DHT22;9888;48.606;9.630;2022-10-26T07:59:04;15.20;99.90
19496;DHT22;9888;48.606;9.630;2022-10-26T08:01:32;15.20;99.90
19496;DHT22;9888;48.606;9.630;2022-10-26T08:04:00;15.30;99.90
19496;DHT22;9888;48.606;9.630;2022-10-26T08:06:27;15.30;99.90
19496;DHT22;9888;48.606;9.630;2022-10-26T08:08:55;15.40;99.90
19496;DHT22;9888;48.606;9.630;2022-10-26T08:11:29;15.50;99.90
19496;DHT22;9888;48.606;9.630;2022-10-26T08:13:57;15.50;99.90
19496;DHT22;9888;48.606;9.630;2022-10-26T08:16:24;15.50;99.90
19496;DHT22;9888;48.606;9.630;2022-10-26T08:18:51;15.50;99.90
19496;DHT22;9888;48.606;9.630;2022-10-26T08:21:20;15.50;99.90
19496;DHT22;9888;48.606;9.630;2022-10-26T08:23:47;15.60;99.90
19496;DHT22;9888;48.606;9.630;2022-10-26T08:26:15;15.70;99.90
19496;DHT22;9888;48.606;9.630;2022-10-26T08:28:48;15.70;99.90
19496;DHT22;9888;48.606;9.630;2022-10-26T08:31:16;15.80;99.90
19496;DHT22;9888;48.606;9.630;2022-10-26T08:33:44;15.70;99.90
19496;DHT22;9888;48.606;9.630;2022-10-26T08:36:11;15.80;99.90
19496;DHT22;9888;48.606;9.630;2022-10-26T08:38:52;15.70;99.90
19496;DHT22;9888;48.606;9.630;2022-10-26T08:41:38;15.70;99.90
19496;DHT22;9888;48.606;9.630;2022-10-26T08:44:43;15.80;99.90
19496;DHT22;9888;48.606;9.630;2022-10-26T08:47:36;15.80;99.90
19496;DHT22;9888;48.606;9.630;2022-10-26T08:55:41;15.70;99.90
19496;DHT22;9888;48.606;9.630;2022-10-26T08:58:21;15.70;99.90
19496;DHT22;9888;48.606;9.630;2022-10-26T09:00:55;15.60;99.90
19496;DHT22;9888;48.606;9.630;2022-10-26T09:03:24;15.70;99.90
19496;DHT22;9888;48.606;9.630;2022-10-26T09:09:02;15.80;99.90
19496;DHT22;9888;48.606;9.630;2022-10-26T09:20:16;16.40;99.90
19496;DHT22;9888;48.606;9.630;2022-10-26T09:23:23;16.50;99.90
19496;DHT22;9888;48.606;9.630;2022-10-26T09:26:02;16.60;99.90
19496;DHT22;9888;48.606;9.630;2022-10-26T09:28:35;16.80;99.90
19496;DHT22;9888;48.606;9.630;2022-10-26T09:31:04;17.00;99.90
19496;DHT22;9888;48.606;9.630;2022-10-26T09:33:37;17.20;99.90
19496;DHT22;9888;48.606;9.630;2022-10-26T09:36:23;17.40;99.90
19496;DHT22;9888;48.606;9.630;2022-10-26T09:39:20;17.40;99.90
19496;DHT22;9888;48.606;9.630;2022-10-26T09:42:05;17.60;99.90
19496;DHT22;9888;48.606;9.630;2022-10-26T09:44:54;17.70;99.90
19496;DHT22;9888;48.606;9.630;2022-10-26T09:52:51;21.90;99.90
19496;DHT22;9888;48.606;9.630;2022-10-26T09:55:40;24.40;99.90
19496;DHT22;9888;48.606;9.630;2022-10-26T09:58:16;26.20;99.90
19496;DHT22;9888;48.606;9.630;2022-10-26T10:00:49;27.40;99.90
19496;DHT22;9888;48.606;9.630;2022-10-26T10:03:24;28.20;99.90
19496;DHT22;9888;48.606;9.630;2022-10-26T10:05:53;26.40;99.90
19496;DHT22;9888;48.606;9.630;2022-10-26T10:08:24;24.10;99.90
19496;DHT22;9888;48.606;9.630;2022-10-26T10:11:12;22.10;99.90
19496;DHT22;9888;48.606;9.630;2022-10-26T10:13:45;20.10;99.90
19496;DHT22;9888;48.606;9.630;2022-10-26T10:16:23;19.70;99.90
19496;DHT22;9888;48.606;9.630;2022-10-26T10:18:57;21.00;99.90
19496;DHT22;9888;48.606;9.630;2022-10-26T10:25:22;22.10;99.90
19496;DHT22;9888;48.606;9.630;2022-10-26T10:27:56;19.90;99.90
19496;DHT22;9888;48.606;9.630;2022-10-26T10:30:33;18.60;99.90
19496;DHT22;9888;48.606;9.630;2022-10-26T10:33:14;18.90;99.90
19496;DHT22;9888;48.606;9.630;2022-10-26T10:35:49;18.60;99.90
19496;DHT22;9888;48.606;9.630;2022-10-26T10:38:21;18.90;99.90
19496;DHT22;9888;48.606;9.630;2022-10-26T10:40:52;19.20;99.90
19496;DHT22;9888;48.606;9.630;2022-10-26T10:43:21;18.80;99.90
19496;DHT22;9888;48.606;9.630;2022-10-26T10:45:50;19.00;99.90
19496;DHT22;9888;48.606;9.630;2022-10-26T10:48:30;22.20;99.90
19496;DHT22;9888;48.606;9.630;2022-10-26T10:51:02;22.50;99.90
19496;DHT22;9888;48.606;9.630;2022-10-26T11:06:24;24.40;99.90
19496;DHT22;9888;48.606;9.630;2022-10-26T11:08:39;23.50;99.90
19496;DHT22;9888;48.606;9.630;2022-10-26T11:11:44;24.50;99.90
19496;DHT22;9888;48.606;9.630;2022-10-26T11:14:28;23.60;99.90
19496;DHT22;9888;48.606;9.630;2022-10-26T11:17:19;23.50;99.90
19496;DHT22;9888;48.606;9.630;2022-10-26T11:20:14;23.20;99.90
19496;DHT22;9888;48.606;9.630;2022-10-26T11:23:11;21.90;99.90
19496;DHT22;9888;48.606;9.630;2022-10-26T11:26:17;21.20;99.90
19496;DHT22;9888;48.606;9.630;2022-10-26T11:28:57;20.00;99.90
19496;DHT22;9888;48.606;9.630;2022-10-26T11:31:32;19.50;99.90
19496;DHT22;9888;48.606;9.630;2022-10-26T11:36:38;18.60;99.90
19496;DHT22;9888;48.606;9.630;2022-10-26T11:47:29;19.00;99.90
19496;DHT22;9888;48.606;9.630;2022-10-26T11:53:09;19.50;99.90
19496;DHT22;9888;48.606;9.630;2022-10-26T11:55:40;19.70;99.90
19496;DHT22;9888;48.606;9.630;2022-10-26T11:58:10;19.20;99.90
19496;DHT22;9888;48.606;9.630;2022-10-26T12:01:28;19.50;99.90
19496;DHT22;9888;48.606;9.630;2022-10-26T12:03:52;19.30;99.90
19496;DHT22;9888;48.606;9.630;2022-10-26T12:06:25;19.30;99.90
19496;DHT22;9888;48.606;9.630;2022-10-26T12:09:07;19.90;99.90
19496;DHT22;9888;48.606;9.630;2022-10-26T12:12:01;20.40;99.90
19496;DHT22;9888;48.606;9.630;2022-10-26T12:17:16;20.90;99.90
19496;DHT22;9888;48.606;9.630;2022-10-26T12:20:14;21.60;99.90
19496;DHT22;9888;48.606;9.630;2022-10-26T12:22:46;22.00;99.90
19496;DHT22;9888;48.606;9.630;2022-10-26T12:25:20;21.90;99.90
19496;DHT22;9888;48.606;9.630;2022-10-26T12:27:53;22.30;99.90
19496;DHT22;9888;48.606;9.630;2022-10-26T12:30:22;22.90;99.90
19496;DHT22;9888;48.606;9.630;2022-10-26T12:32:57;22.80;99.90
19496;DHT22;9888;48.606;9.630;2022-10-26T12:35:39;22.80;99.90
19496;DHT22;9888;48.606;9.630;2022-10-26T12:41:33;22.40;99.90
19496;DHT22;9888;48.606;9.630;2022-10-26T12:43:47;22.30;99.90
19496;DHT22;9888;48.606;9.630;2022-10-26T12:49:00;22.50;99.90
19496;DHT22;9888;48.606;9.630;2022-10-26T12:56:48;21.60;99.90
19496;DHT22;9888;48.606;9.630;2022-10-26T13:02:19;23.00;99.90
19496;DHT22;9888;48.606;9.630;2022-10-26T13:07:45;21.20;99.90
19496;DHT22;9888;48.606;9.630;2022-10-26T13:12:58;20.60;99.90
19496;DHT22;9888;48.606;9.630;2022-10-26T13:18:17;19.70;99.90
19496;DHT22;9888;48.606;9.630;2022-10-26T13:21:04;19.70;99.90
19496;DHT22;9888;48.606;9.630;2022-10-26T13:23:36;19.50;99.90
19496;DHT22;9888;48.606;9.630;2022-10-26T13:26:10;19.50;99.90
19496;DHT22;9888;48.606;9.630;2022-10-26T13:34:13;19.10;99.90
19496;DHT22;9888;48.606;9.630;2022-10-26T13:36:45;19.10;99.90
19496;DHT22;9888;48.606;9.630;2022-10-26T13:39:20;19.90;99.90
19496;DHT22;9888;48.606;9.630;2022-10-26T13:41:51;21.30;99.90
19496;DHT22;9888;48.606;9.630;2022-10-26T13:44:30;23.20;99.90
19496;DHT22;9888;48.606;9.630;2022-10-26T13:47:05;25.70;99.90
19496;DHT22;9888;48.606;9.630;2022-10-26T13:49:41;26.50;99.90
19496;DHT22;9888;48.606;9.630;2022-10-26T13:52:15;26.60;99.90
19496;DHT22;9888;48.606;9.630;2022-10-26T13:54:52;25.80;99.90
19496;DHT22;9888;48.606;9.630;2022-10-26T13:59:59;24.10;99.90
19496;DHT22;9888;48.606;9.630;2022-10-26T14:02:28;24.20;99.90
19496;DHT22;9888;48.606;9.630;2022-10-26T14:05:08;24.40;99.90
19496;DHT22;9888;48.606;9.630;2022-10-26T14:07:54;24.70;99.90
19496;DHT22;9888;48.606;9.630;2022-10-26T14:10:39;24.20;99.90
19496;DHT22;9888;48.606;9.630;2022-10-26T14:13:09;24.00;99.90
19496;DHT22;9888;48.606;9.630;2022-10-26T14:15:43;23.70;99.90
19496;DHT22;9888;48.606;9.630;2022-10-26T14:18:19;23.80;99.90
19496;DHT22;9888;48.606;9.630;2022-10-26T14:23:58;23.10;99.90
19496;DHT22;9888;48.606;9.630;2022-10-26T14:26:44;22.40;99.90
19496;DHT22;9888;48.606;9.630;2022-10-26T14:29:23;22.00;99.90
19496;DHT22;9888;48.606;9.630;2022-10-26T14:31:52;21.60;99.90
19496;DHT22;9888;48.606;9.630;2022-10-26T14:34:20;22.00;99.90
19496;DHT22;9888;48.606;9.630;2022-10-26T14:37:00;22.30;99.90
19496;DHT22;9888;48.606;9.630;2022-10-26T14:39:57;23.70;99.90
19496;DHT22;9888;48.606;9.630;2022-10-26T14:42:30;25.50;99.90
19496;DHT22;9888;48.606;9.630;2022-10-26T14:45:01;26.60;99.90
19496;DHT22;9888;48.606;9.630;2022-10-26T14:47:31;26.40;99.90
19496;DHT22;9888;48.606;9.630;2022-10-26T14:50:00;24.70;99.90
19496;DHT22;9888;48.606;9.630;2022-10-26T14:52:33;22.70;99.90
19496;DHT22;9888;48.606;9.630;2022-10-26T14:55:21;22.00;99.90
19496;DHT22;9888;48.606;9.630;2022-10-26T14:57:52;21.20;99.90
19496;DHT22;9888;48.606;9.630;2022-10-26T15:00:33;20.60;99.90
19496;DHT22;9888;48.606;9.630;2022-10-26T15:03:01;20.40;99.90
19496;DHT22;9888;48.606;9.630;2022-10-26T15:05:29;20.10;99.90
19496;DHT22;9888;48.606;9.630;2022-10-26T15:08:00;19.90;99.90
19496;DHT22;9888;48.606;9.630;2022-10-26T15:13:30;19.60;99.90
19496;DHT22;9888;48.606;9.630;2022-10-26T15:16:08;19.40;99.90
19496;DHT22;9888;48.606;9.630;2022-10-26T15:18:37;19.20;99.90
19496;DHT22;9888;48.606;9.630;2022-10-26T15:21:24;19.00;99.90
19496;DHT22;9888;48.606;9.630;2022-10-26T15:23:52;18.80;99.90
19496;DHT22;9888;48.606;9.630;2022-10-26T15:26:21;18.50;99.90
19496;DHT22;9888;48.606;9.630;2022-10-26T15:28:49;18.30;99.90
19496;DHT22;9888;48.606;9.630;2022-10-26T15:36:32;17.60;99.90
19496;DHT22;9888;48.606;9.630;2022-10-26T15:39:00;17.40;99.90
19496;DHT22;9888;48.606;9.630;2022-10-26T15:41:29;17.20;99.90
19496;DHT22;9888;48.606;9.630;2022-10-26T15:43:59;17.00;99.90
19496;DHT22;9888;48.606;9.630;2022-10-26T15:46:33;16.70;99.90
19496;DHT22;9888;48.606;9.630;2022-10-26T15:49:02;16.50;99.90
19496;DHT22;9888;48.606;9.630;2022-10-26T15:51:30;16.30;99.90
19496;DHT22;9888;48.606;9.630;2022-10-26T15:54:04;16.00;99.90
19496;DHT22;9888;48.606;9.630;2022-10-26T15:56:32;15.80;99.90
19496;DHT22;9888;48.606;9.630;2022-10-26T15:59:00;15.50;99.90
19496;DHT22;9888;48.606;9.630;2022-10-26T16:01:28;15.40;99.90
19496;DHT22;9888;48.606;9.630;2022-10-26T16:03:56;15.10;99.90
19496;DHT22;9888;48.606;9.630;2022-10-26T16:06:33;15.00;99.90
19496;DHT22;9888;48.606;9.630;2022-10-26T16:09:05;14.80;99.90
19496;DHT22;9888;48.606;9.630;2022-10-26T16:11:32;14.60;99.90
19496;DHT22;9888;48.606;9.630;2022-10-26T16:13:59;14.50;99.90
19496;DHT22;9888;48.606;9.630;2022-10-26T16:16:26;14.40;99.90
19496;DHT22;9888;48.606;9.630;2022-10-26T16:18:55;14.30;99.90
19496;DHT22;9888;48.606;9.630;2022-10-26T16:21:23;14.10;99.90
19496;DHT22;9888;48.606;9.630;2022-10-26T16:23:52;14.00;99.90
19496;DHT22;9888;48.606;9.630;2022-10-26T16:26:21;13.90;99.90
19496;DHT22;9888;48.606;9.630;2022-10-26T16:28:50;13.70;99.90
19496;DHT22;9888;48.606;9.630;2022-10-26T16:31:19;13.50;99.90
19496;DHT22;9888;48.606;9.630;2022-10-26T16:33:47;13.30;99.90
19496;DHT22;9888;48.606;9.630;2022-10-26T16:36:15;13.10;99.90
19496;DHT22;9888;48.606;9.630;2022-10-26T16:38:46;13.00;99.90
19496;DHT22;9888;48.606;9.630;2022-10-26T16:41:14;12.90;99.90
19496;DHT22;9888;48.606;9.630;2022-10-26T16:43:47;12.70;99.90
19496;DHT22;9888;48.606;9.630;2022-10-26T16:46:16;12.60;99.90
19496;DHT22;9888;48.606;9.630;2022-10-26T16:48:46;12.40;99.90
19496;DHT22;9888;48.606;9.630;2022-10-26T16:51:15;12.30;99.90
19496;DHT22;9888;48.606;9.630;2022-10-26T16:53:45;12.20;99.90
19496;DHT22;9888;48.606;9.630;2022-10-26T16:56:14;12.10;99.90
19496;DHT22;9888;48.606;9.630;2022-10-26T16:58:42;12.00;99.90
19496;DHT22;9888;48.606;9.630;2022-10-26T17:01:12;12.00;99.90
19496;DHT22;9888;48.606;9.630;2022-10-26T17:03:44;11.90;99.90
19496;DHT22;9888;48.606;9.630;2022-10-26T17:06:12;11.80;99.90
19496;DHT22;9888;48.606;9.630;2022-10-26T17:08:40;11.80;99.90
19496;DHT22;9888;48.606;9.630;2022-10-26T17:11:11;11.80;99.90
19496;DHT22;9888;48.606;9.630;2022-10-26T17:13:40;11.70;99.90
19496;DHT22;9888;48.606;9.630;2022-10-26T17:16:13;11.70;99.90
19496;DHT22;9888;48.606;9.630;2022-10-26T17:18:41;11.70;99.90
19496;DHT22;9888;48.606;9.630;2022-10-26T17:21:10;11.70;99.90
19496;DHT22;9888;48.606;9.630;2022-10-26T17:23:38;11.70;99.90
19496;DHT22;9888;48.606;9.630;2022-10-26T17:26:07;11.60;99.90
19496;DHT22;9888;48.606;9.630;2022-10-26T17:28:34;11.50;99.90
19496;DHT22;9888;48.606;9.630;2022-10-26T17:31:10;11.40;99.90
19496;DHT22;9888;48.606;9.630;2022-10-26T17:33:38;11.30;99.90
19496;DHT22;9888;48.606;9.630;2022-10-26T17:36:07;11.30;99.90
19496;DHT22;9888;48.606;9.630;2022-10-26T17:38:39;11.20;99.90
19496;DHT22;9888;48.606;9.630;2022-10-26T17:41:08;11.20;99.90
19496;DHT22;9888;48.606;9.630;2022-10-26T17:43:41;11.10;99.90
19496;DHT22;9888;48.606;9.630;2022-10-26T17:46:17;11.00;99.90
19496;DHT22;9888;48.606;9.630;2022-10-26T17:48:44;10.80;99.90
19496;DHT22;9888;48.606;9.630;2022-10-26T17:51:16;10.70;99.90
19496;DHT22;9888;48.606;9.630;2022-10-26T17:53:46;10.60;99.90
19496;DHT22;9888;48.606;9.630;2022-10-26T17:56:19;10.50;99.90
19496;DHT22;9888;48.606;9.630;2022-10-26T17:58:58;10.40;99.90
19496;DHT22;9888;48.606;9.630;2022-10-26T18:01:26;10.40;99.90
19496;DHT22;9888;48.606;9.630;2022-10-26T18:03:57;10.40;99.90
19496;DHT22;9888;48.606;9.630;2022-10-26T18:06:24;10.50;99.90
19496;DHT22;9888;48.606;9.630;2022-10-26T18:08:52;10.40;99.90
19496;DHT22;9888;48.606;9.630;2022-10-26T18:11:23;10.40;99.90
19496;DHT22;9888;48.606;9.630;2022-10-26T18:13:51;10.40;99.90
19496;DHT22;9888;48.606;9.630;2022-10-26T18:16:20;10.30;99.90
19496;DHT22;9888;48.606;9.630;2022-10-26T18:18:55;10.30;99.90
19496;DHT22;9888;48.606;9.630;2022-10-26T18:21:26;10.30;99.90
19496;DHT22;9888;48.606;9.630;2022-10-26T18:23:53;10.20;99.90
19496;DHT22;9888;48.606;9.630;2022-10-26T18:26:22;10.20;99.90
19496;DHT22;9888;48.606;9.630;2022-10-26T18:28:50;10.20;99.90
19496;DHT22;9888;48.606;9.630;2022-10-26T18:31:20;10.10;99.90
19496;DHT22;9888;48.606;9.630;2022-10-26T18:33:52;10.10;99.90
19496;DHT22;9888;48.606;9.630;2022-10-26T18:36:20;10.00;99.90
19496;DHT22;9888;48.606;9.630;2022-10-26T18:38:47;10.00;99.90
19496;DHT22;9888;48.606;9.630;2022-10-26T18:41:17;9.90;99.90
19496;DHT22;9888;48.606;9.630;2022-10-26T18:43:47;9.90;99.90